sensor_id;sensor_type;location;lat;lon;timestamp;P1;durP1;ratioP1;P2;durP2;ratioP2
25341;SDS011;13298;48.792;9.154;2023-09-12T00:01:44;9.93;;;6.72;;
25341;SDS011;13298;48.792;9.154;2023-09-12T00:04:10;11.15;;;7.63;;
25341;SDS011;13298;48.792;9.154;2023-09-12T00:06:36;13.32;;;7.18;;
25341;SDS011;13298;48.792;9.154;2023-09-12T00:09:02;11.43;;;7.22;;
25341;SDS011;13298;48.792;9.154;2023-09-12T00:11:30;13.45;;;7.28;;
25341;SDS011;13298;48.792;9.154;2023-09-12T00:13:56;11.40;;;7.38;;
25341;SDS011;13298;48.792;9.154;2023-09-12T00:16:21;12.75;;;7.57;;
25341;SDS011;13298;48.792;9.154;2023-09-12T00:18:47;8.63;;;6.93;;
25341;SDS011;13298;48.792;9.154;2023-09-12T00:21:13;9.30;;;6.88;;
25341;SDS011;13298;48.792;9.154;2023-09-12T00:23:38;9.63;;;7.20;;
25341;SDS011;13298;48.792;9.154;2023-09-12T00:26:04;11.00;;;7.35;;
25341;SDS011;13298;48.792;9.154;2023-09-12T00:28:30;12.40;;;7.15;;
25341;SDS011;13298;48.792;9.154;2023-09-12T00:30:56;9.70;;;7.68;;
25341;SDS011;13298;48.792;9.154;2023-09-12T00:33:21;10.70;;;7.60;;
25341;SDS011;13298;48.792;9.154;2023-09-12T00:35:47;11.13;;;7.72;;
25341;SDS011;13298;48.792;9.154;2023-09-12T00:38:13;10.73;;;7.30;;
25341;SDS011;13298;48.792;9.154;2023-09-12T00:40:38;13.85;;;7.20;;
25341;SDS011;13298;48.792;9.154;2023-09-12T00:43:04;10.85;;;7.80;;
25341;SDS011;13298;48.792;9.154;2023-09-12T00:45:30;9.88;;;7.22;;
25341;SDS011;13298;48.792;9.154;2023-09-12T00:47:56;12.95;;;7.20;;
25341;SDS011;13298;48.792;9.154;2023-09-12T00:50:23;11.23;;;7.63;;
25341;SDS011;13298;48.792;9.154;2023-09-12T00:52:50;11.63;;;7.72;;
25341;SDS011;13298;48.792;9.154;2023-09-12T00:55:17;13.65;;;7.65;;
25341;SDS011;13298;48.792;9.154;2023-09-12T00:57:43;12.15;;;7.38;;
25341;SDS011;13298;48.792;9.154;2023-09-12T01:00:11;9.52;;;7.43;;
25341;SDS011;13298;48.792;9.154;2023-09-12T01:02:39;11.57;;;7.30;;
25341;SDS011;13298;48.792;9.154;2023-09-12T01:05:07;9.63;;;7.35;;
25341;SDS011;13298;48.792;9.154;2023-09-12T01:07:37;13.32;;;7.68;;
25341;SDS011;13298;48.792;9.154;2023-09-12T01:10:06;9.13;;;7.57;;
25341;SDS011;13298;48.792;9.154;2023-09-12T01:12:33;12.20;;;7.60;;
25341;SDS011;13298;48.792;9.154;2023-09-12T01:14:59;11.05;;;7.43;;
25341;SDS011;13298;48.792;9.154;2023-09-12T01:17:25;11.50;;;7.75;;
25341;SDS011;13298;48.792;9.154;2023-09-12T01:19:51;11.20;;;7.57;;
25341;SDS011;13298;48.792;9.154;2023-09-12T01:25:25;11.02;;;7.63;;
25341;SDS011;13298;48.792;9.154;2023-09-12T01:28:15;11.93;;;7.10;;
25341;SDS011;13298;48.792;9.154;2023-09-12T01:30:42;9.70;;;7.30;;
25341;SDS011;13298;48.792;9.154;2023-09-12T01:33:13;12.93;;;8.13;;
25341;SDS011;13298;48.792;9.154;2023-09-12T01:35:39;11.88;;;7.50;;
25341;SDS011;13298;48.792;9.154;2023-09-12T01:38:05;11.15;;;7.38;;
25341;SDS011;13298;48.792;9.154;2023-09-12T01:40:33;9.70;;;7.47;;
25341;SDS011;13298;48.792;9.154;2023-09-12T01:43:06;11.07;;;7.18;;
25341;SDS011;13298;48.792;9.154;2023-09-12T01:45:32;11.82;;;7.63;;
25341;SDS011;13298;48.792;9.154;2023-09-12T01:47:58;12.23;;;7.78;;
25341;SDS011;13298;48.792;9.154;2023-09-12T01:50:25;12.88;;;7.72;;
25341;SDS011;13298;48.792;9.154;2023-09-12T01:52:53;13.43;;;7.78;;
25341;SDS011;13298;48.792;9.154;2023-09-12T01:55:19;10.15;;;7.32;;
25341;SDS011;13298;48.792;9.154;2023-09-12T01:57:46;14.27;;;7.82;;
25341;SDS011;13298;48.792;9.154;2023-09-12T02:00:12;12.23;;;7.55;;
25341;SDS011;13298;48.792;9.154;2023-09-12T02:02:38;10.80;;;7.72;;
25341;SDS011;13298;48.792;9.154;2023-09-12T02:05:09;11.38;;;7.90;;
25341;SDS011;13298;48.792;9.154;2023-09-12T02:07:43;12.05;;;7.78;;
25341;SDS011;13298;48.792;9.154;2023-09-12T02:10:10;11.23;;;7.95;;
25341;SDS011;13298;48.792;9.154;2023-09-12T02:12:36;10.77;;;7.50;;
25341;SDS011;13298;48.792;9.154;2023-09-12T02:15:02;11.40;;;7.60;;
25341;SDS011;13298;48.792;9.154;2023-09-12T02:17:28;11.55;;;7.32;;
25341;SDS011;13298;48.792;9.154;2023-09-12T02:19:54;9.23;;;7.40;;
25341;SDS011;13298;48.792;9.154;2023-09-12T02:22:19;11.90;;;7.78;;
25341;SDS011;13298;48.792;9.154;2023-09-12T02:24:45;13.00;;;7.25;;
25341;SDS011;13298;48.792;9.154;2023-09-12T02:27:11;13.32;;;7.22;;
25341;SDS011;13298;48.792;9.154;2023-09-12T02:29:38;10.75;;;7.95;;
25341;SDS011;13298;48.792;9.154;2023-09-12T02:32:04;12.85;;;7.85;;
25341;SDS011;13298;48.792;9.154;2023-09-12T02:34:30;13.45;;;7.90;;
25341;SDS011;13298;48.792;9.154;2023-09-12T02:36:57;10.98;;;7.63;;
25341;SDS011;13298;48.792;9.154;2023-09-12T02:39:23;14.23;;;7.60;;
25341;SDS011;13298;48.792;9.154;2023-09-12T02:41:48;15.02;;;7.43;;
25341;SDS011;13298;48.792;9.154;2023-09-12T02:44:14;11.73;;;7.35;;
25341;SDS011;13298;48.792;9.154;2023-09-12T02:46:40;11.38;;;7.93;;
25341;SDS011;13298;48.792;9.154;2023-09-12T02:49:06;9.18;;;7.22;;
25341;SDS011;13298;48.792;9.154;2023-09-12T02:51:31;10.55;;;7.35;;
25341;SDS011;13298;48.792;9.154;2023-09-12T02:53:57;12.20;;;7.40;;
25341;SDS011;13298;48.792;9.154;2023-09-12T02:56:23;13.40;;;7.57;;
25341;SDS011;13298;48.792;9.154;2023-09-12T02:58:49;12.88;;;7.53;;
25341;SDS011;13298;48.792;9.154;2023-09-12T03:01:18;14.57;;;7.85;;
25341;SDS011;13298;48.792;9.154;2023-09-12T03:03:48;11.48;;;7.65;;
25341;SDS011;13298;48.792;9.154;2023-09-12T03:06:14;12.95;;;7.93;;
25341;SDS011;13298;48.792;9.154;2023-09-12T03:08:41;10.70;;;7.68;;
25341;SDS011;13298;48.792;9.154;2023-09-12T03:11:08;10.90;;;7.65;;
25341;SDS011;13298;48.792;9.154;2023-09-12T03:13:34;10.07;;;7.43;;
25341;SDS011;13298;48.792;9.154;2023-09-12T03:16:01;11.18;;;7.60;;
25341;SDS011;13298;48.792;9.154;2023-09-12T03:18:28;12.43;;;8.05;;
25341;SDS011;13298;48.792;9.154;2023-09-12T03:20:53;14.07;;;8.18;;
25341;SDS011;13298;48.792;9.154;2023-09-12T03:23:19;8.75;;;7.38;;
25341;SDS011;13298;48.792;9.154;2023-09-12T03:25:45;9.15;;;7.20;;
25341;SDS011;13298;48.792;9.154;2023-09-12T03:28:11;10.13;;;7.32;;
25341;SDS011;13298;48.792;9.154;2023-09-12T03:30:37;12.23;;;7.55;;
25341;SDS011;13298;48.792;9.154;2023-09-12T03:33:03;14.00;;;8.07;;
25341;SDS011;13298;48.792;9.154;2023-09-12T03:35:31;12.85;;;7.25;;
25341;SDS011;13298;48.792;9.154;2023-09-12T03:37:57;9.50;;;7.28;;
25341;SDS011;13298;48.792;9.154;2023-09-12T03:40:23;13.25;;;7.18;;
25341;SDS011;13298;48.792;9.154;2023-09-12T03:42:49;11.07;;;7.30;;
25341;SDS011;13298;48.792;9.154;2023-09-12T03:45:15;10.52;;;7.30;;
25341;SDS011;13298;48.792;9.154;2023-09-12T03:47:40;15.82;;;7.05;;
25341;SDS011;13298;48.792;9.154;2023-09-12T03:50:07;9.55;;;7.00;;
25341;SDS011;13298;48.792;9.154;2023-09-12T03:52:33;8.57;;;6.68;;
25341;SDS011;13298;48.792;9.154;2023-09-12T03:54:59;9.18;;;7.32;;
25341;SDS011;13298;48.792;9.154;2023-09-12T03:57:26;10.20;;;7.43;;
25341;SDS011;13298;48.792;9.154;2023-09-12T03:59:51;12.43;;;7.40;;
25341;SDS011;13298;48.792;9.154;2023-09-12T04:02:17;10.65;;;7.80;;
25341;SDS011;13298;48.792;9.154;2023-09-12T04:04:43;11.43;;;7.10;;
25341;SDS011;13298;48.792;9.154;2023-09-12T04:07:09;10.95;;;7.03;;
25341;SDS011;13298;48.792;9.154;2023-09-12T04:09:35;10.32;;;7.22;;
25341;SDS011;13298;48.792;9.154;2023-09-12T04:12:00;12.30;;;8.13;;
25341;SDS011;13298;48.792;9.154;2023-09-12T04:14:26;12.70;;;7.90;;
25341;SDS011;13298;48.792;9.154;2023-09-12T04:16:52;10.93;;;7.75;;
25341;SDS011;13298;48.792;9.154;2023-09-12T04:19:18;9.88;;;7.70;;
25341;SDS011;13298;48.792;9.154;2023-09-12T04:21:43;11.30;;;7.90;;
25341;SDS011;13298;48.792;9.154;2023-09-12T04:24:09;12.35;;;7.57;;
25341;SDS011;13298;48.792;9.154;2023-09-12T04:26:35;15.88;;;8.68;;
25341;SDS011;13298;48.792;9.154;2023-09-12T04:29:01;12.43;;;7.60;;
25341;SDS011;13298;48.792;9.154;2023-09-12T04:31:27;11.45;;;7.63;;
25341;SDS011;13298;48.792;9.154;2023-09-12T04:33:53;11.90;;;8.07;;
25341;SDS011;13298;48.792;9.154;2023-09-12T04:36:19;14.18;;;6.93;;
25341;SDS011;13298;48.792;9.154;2023-09-12T04:38:45;14.25;;;7.55;;
25341;SDS011;13298;48.792;9.154;2023-09-12T04:41:12;10.98;;;7.13;;
25341;SDS011;13298;48.792;9.154;2023-09-12T04:43:42;12.65;;;7.57;;
25341;SDS011;13298;48.792;9.154;2023-09-12T04:46:09;9.85;;;7.15;;
25341;SDS011;13298;48.792;9.154;2023-09-12T04:48:36;10.32;;;7.20;;
25341;SDS011;13298;48.792;9.154;2023-09-12T04:51:02;11.07;;;7.90;;
25341;SDS011;13298;48.792;9.154;2023-09-12T04:53:28;10.27;;;7.13;;
25341;SDS011;13298;48.792;9.154;2023-09-12T04:56:01;12.93;;;7.30;;
25341;SDS011;13298;48.792;9.154;2023-09-12T04:58:28;11.77;;;7.32;;
25341;SDS011;13298;48.792;9.154;2023-09-12T05:00:54;15.60;;;8.00;;
25341;SDS011;13298;48.792;9.154;2023-09-12T05:03:21;10.32;;;7.80;;
25341;SDS011;13298;48.792;9.154;2023-09-12T05:05:48;12.15;;;7.78;;
25341;SDS011;13298;48.792;9.154;2023-09-12T05:08:17;10.70;;;7.75;;
25341;SDS011;13298;48.792;9.154;2023-09-12T05:10:46;10.68;;;7.57;;
25341;SDS011;13298;48.792;9.154;2023-09-12T05:13:12;12.80;;;6.75;;
25341;SDS011;13298;48.792;9.154;2023-09-12T05:15:39;10.40;;;7.40;;
25341;SDS011;13298;48.792;9.154;2023-09-12T05:18:06;9.40;;;6.63;;
25341;SDS011;13298;48.792;9.154;2023-09-12T05:20:32;8.85;;;7.10;;
25341;SDS011;13298;48.792;9.154;2023-09-12T05:22:59;10.25;;;7.07;;
25341;SDS011;13298;48.792;9.154;2023-09-12T05:25:24;10.93;;;7.50;;
25341;SDS011;13298;48.792;9.154;2023-09-12T05:27:51;11.68;;;8.23;;
25341;SDS011;13298;48.792;9.154;2023-09-12T05:30:17;9.43;;;7.22;;
25341;SDS011;13298;48.792;9.154;2023-09-12T05:32:43;9.90;;;7.45;;
25341;SDS011;13298;48.792;9.154;2023-09-12T05:35:09;8.27;;;6.65;;
25341;SDS011;13298;48.792;9.154;2023-09-12T05:37:35;11.68;;;8.23;;
25341;SDS011;13298;48.792;9.154;2023-09-12T05:40:00;12.38;;;8.38;;
25341;SDS011;13298;48.792;9.154;2023-09-12T05:42:26;9.27;;;7.32;;
25341;SDS011;13298;48.792;9.154;2023-09-12T05:44:52;11.15;;;7.47;;
25341;SDS011;13298;48.792;9.154;2023-09-12T05:47:21;11.10;;;6.93;;
25341;SDS011;13298;48.792;9.154;2023-09-12T05:49:46;13.88;;;7.72;;
25341;SDS011;13298;48.792;9.154;2023-09-12T05:52:12;10.57;;;6.90;;
25341;SDS011;13298;48.792;9.154;2023-09-12T05:54:38;10.57;;;7.07;;
25341;SDS011;13298;48.792;9.154;2023-09-12T05:57:05;11.48;;;7.00;;
25341;SDS011;13298;48.792;9.154;2023-09-12T05:59:32;11.57;;;7.10;;
25341;SDS011;13298;48.792;9.154;2023-09-12T06:02:00;8.77;;;6.63;;
25341;SDS011;13298;48.792;9.154;2023-09-12T06:04:26;14.82;;;7.82;;
25341;SDS011;13298;48.792;9.154;2023-09-12T06:06:51;11.43;;;7.95;;
25341;SDS011;13298;48.792;9.154;2023-09-12T06:09:17;11.93;;;7.60;;
25341;SDS011;13298;48.792;9.154;2023-09-12T06:11:43;9.70;;;6.97;;
25341;SDS011;13298;48.792;9.154;2023-09-12T06:14:08;12.05;;;7.40;;
25341;SDS011;13298;48.792;9.154;2023-09-12T06:16:34;14.85;;;8.13;;
25341;SDS011;13298;48.792;9.154;2023-09-12T06:19:00;13.95;;;8.00;;
25341;SDS011;13298;48.792;9.154;2023-09-12T06:21:25;9.70;;;7.30;;
25341;SDS011;13298;48.792;9.154;2023-09-12T06:24:07;10.38;;;7.38;;
25341;SDS011;13298;48.792;9.154;2023-09-12T06:26:41;10.30;;;7.63;;
25341;SDS011;13298;48.792;9.154;2023-09-12T06:29:07;10.60;;;7.90;;
25341;SDS011;13298;48.792;9.154;2023-09-12T06:31:34;9.77;;;7.10;;
25341;SDS011;13298;48.792;9.154;2023-09-12T06:34:00;11.98;;;7.30;;
25341;SDS011;13298;48.792;9.154;2023-09-12T06:36:27;12.60;;;6.80;;
25341;SDS011;13298;48.792;9.154;2023-09-12T06:38:54;8.45;;;6.55;;
25341;SDS011;13298;48.792;9.154;2023-09-12T06:41:21;11.82;;;7.75;;
25341;SDS011;13298;48.792;9.154;2023-09-12T06:43:47;10.02;;;6.90;;
25341;SDS011;13298;48.792;9.154;2023-09-12T06:46:13;9.48;;;6.78;;
25341;SDS011;13298;48.792;9.154;2023-09-12T06:48:39;8.30;;;6.50;;
25341;SDS011;13298;48.792;9.154;2023-09-12T06:51:05;13.20;;;8.27;;
25341;SDS011;13298;48.792;9.154;2023-09-12T06:53:33;12.82;;;7.53;;
25341;SDS011;13298;48.792;9.154;2023-09-12T06:55:59;10.43;;;7.22;;
25341;SDS011;13298;48.792;9.154;2023-09-12T06:58:25;10.48;;;6.97;;
25341;SDS011;13298;48.792;9.154;2023-09-12T07:00:51;13.73;;;7.30;;
25341;SDS011;13298;48.792;9.154;2023-09-12T07:03:17;13.50;;;6.95;;
25341;SDS011;13298;48.792;9.154;2023-09-12T07:05:43;11.38;;;7.00;;
25341;SDS011;13298;48.792;9.154;2023-09-12T07:08:09;9.45;;;6.82;;
25341;SDS011;13298;48.792;9.154;2023-09-12T07:10:35;12.52;;;7.95;;
25341;SDS011;13298;48.792;9.154;2023-09-12T07:13:01;9.85;;;7.15;;
25341;SDS011;13298;48.792;9.154;2023-09-12T07:15:27;10.50;;;6.32;;
25341;SDS011;13298;48.792;9.154;2023-09-12T07:17:53;9.50;;;7.03;;
25341;SDS011;13298;48.792;9.154;2023-09-12T07:20:19;11.88;;;6.68;;
25341;SDS011;13298;48.792;9.154;2023-09-12T07:22:45;11.80;;;7.32;;
25341;SDS011;13298;48.792;9.154;2023-09-12T07:25:14;9.95;;;6.88;;
25341;SDS011;13298;48.792;9.154;2023-09-12T07:27:39;9.77;;;7.00;;
25341;SDS011;13298;48.792;9.154;2023-09-12T07:30:05;10.43;;;6.85;;
25341;SDS011;13298;48.792;9.154;2023-09-12T07:32:32;12.35;;;7.40;;
25341;SDS011;13298;48.792;9.154;2023-09-12T07:34:58;9.68;;;6.68;;
25341;SDS011;13298;48.792;9.154;2023-09-12T07:37:24;8.40;;;6.35;;
25341;SDS011;13298;48.792;9.154;2023-09-12T07:39:50;12.15;;;8.05;;
25341;SDS011;13298;48.792;9.154;2023-09-12T07:42:15;12.35;;;8.20;;
25341;SDS011;13298;48.792;9.154;2023-09-12T07:44:41;11.48;;;7.25;;
25341;SDS011;13298;48.792;9.154;2023-09-12T07:47:07;12.32;;;8.52;;
25341;SDS011;13298;48.792;9.154;2023-09-12T07:49:33;14.98;;;8.88;;
25341;SDS011;13298;48.792;9.154;2023-09-12T07:51:58;12.90;;;8.50;;
25341;SDS011;13298;48.792;9.154;2023-09-12T07:54:24;18.98;;;8.73;;
25341;SDS011;13298;48.792;9.154;2023-09-12T07:56:50;16.67;;;8.85;;
25341;SDS011;13298;48.792;9.154;2023-09-12T07:59:15;17.63;;;9.20;;
25341;SDS011;13298;48.792;9.154;2023-09-12T08:01:41;18.70;;;8.75;;
25341;SDS011;13298;48.792;9.154;2023-09-12T08:04:07;16.10;;;8.02;;
25341;SDS011;13298;48.792;9.154;2023-09-12T08:06:33;12.27;;;8.40;;
25341;SDS011;13298;48.792;9.154;2023-09-12T08:08:59;14.40;;;8.77;;
25341;SDS011;13298;48.792;9.154;2023-09-12T08:11:25;15.73;;;9.00;;
25341;SDS011;13298;48.792;9.154;2023-09-12T08:13:52;13.98;;;8.43;;
25341;SDS011;13298;48.792;9.154;2023-09-12T08:16:17;11.52;;;8.27;;
25341;SDS011;13298;48.792;9.154;2023-09-12T08:18:43;10.98;;;7.93;;
25341;SDS011;13298;48.792;9.154;2023-09-12T08:21:09;11.25;;;7.40;;
25341;SDS011;13298;48.792;9.154;2023-09-12T08:23:35;10.88;;;7.82;;
25341;SDS011;13298;48.792;9.154;2023-09-12T08:26:01;8.68;;;6.82;;
25341;SDS011;13298;48.792;9.154;2023-09-12T08:28:27;11.52;;;8.48;;
25341;SDS011;13298;48.792;9.154;2023-09-12T08:30:53;10.38;;;7.25;;
25341;SDS011;13298;48.792;9.154;2023-09-12T08:33:19;12.00;;;7.53;;
25341;SDS011;13298;48.792;9.154;2023-09-12T08:35:44;7.57;;;6.68;;
25341;SDS011;13298;48.792;9.154;2023-09-12T08:38:10;9.77;;;7.07;;
25341;SDS011;13298;48.792;9.154;2023-09-12T08:40:36;8.63;;;7.40;;
25341;SDS011;13298;48.792;9.154;2023-09-12T08:43:02;9.45;;;6.80;;
25341;SDS011;13298;48.792;9.154;2023-09-12T08:45:29;8.23;;;6.97;;
25341;SDS011;13298;48.792;9.154;2023-09-12T08:47:55;12.50;;;7.25;;
25341;SDS011;13298;48.792;9.154;2023-09-12T08:50:26;10.50;;;7.65;;
25341;SDS011;13298;48.792;9.154;2023-09-12T08:52:56;10.93;;;7.85;;
25341;SDS011;13298;48.792;9.154;2023-09-12T08:55:21;14.50;;;7.82;;
25341;SDS011;13298;48.792;9.154;2023-09-12T08:57:47;10.43;;;7.93;;
25341;SDS011;13298;48.792;9.154;2023-09-12T09:00:15;9.52;;;7.43;;
25341;SDS011;13298;48.792;9.154;2023-09-12T09:02:42;12.15;;;8.88;;
25341;SDS011;13298;48.792;9.154;2023-09-12T09:05:09;12.82;;;8.50;;
25341;SDS011;13298;48.792;9.154;2023-09-12T09:07:36;10.43;;;8.60;;
25341;SDS011;13298;48.792;9.154;2023-09-12T09:10:04;8.27;;;7.25;;
25341;SDS011;13298;48.792;9.154;2023-09-12T09:12:32;9.60;;;7.75;;
25341;SDS011;13298;48.792;9.154;2023-09-12T09:15:19;11.57;;;8.18;;
25341;SDS011;13298;48.792;9.154;2023-09-12T09:17:53;13.93;;;8.82;;
25341;SDS011;13298;48.792;9.154;2023-09-12T09:20:30;13.95;;;7.97;;
25341;SDS011;13298;48.792;9.154;2023-09-12T09:23:06;9.38;;;7.28;;
25341;SDS011;13298;48.792;9.154;2023-09-12T09:25:43;11.32;;;8.25;;
25341;SDS011;13298;48.792;9.154;2023-09-12T09:28:21;13.15;;;7.82;;
25341;SDS011;13298;48.792;9.154;2023-09-12T09:30:48;12.18;;;8.23;;
25341;SDS011;13298;48.792;9.154;2023-09-12T09:33:16;13.65;;;8.23;;
25341;SDS011;13298;48.792;9.154;2023-09-12T09:35:42;10.00;;;7.82;;
25341;SDS011;13298;48.792;9.154;2023-09-12T09:38:10;13.57;;;8.10;;
25341;SDS011;13298;48.792;9.154;2023-09-12T09:40:41;14.23;;;8.52;;
25341;SDS011;13298;48.792;9.154;2023-09-12T09:43:08;12.68;;;7.97;;
25341;SDS011;13298;48.792;9.154;2023-09-12T09:45:41;13.07;;;8.55;;
25341;SDS011;13298;48.792;9.154;2023-09-12T09:48:17;14.00;;;8.00;;
25341;SDS011;13298;48.792;9.154;2023-09-12T09:50:47;12.13;;;8.85;;
25341;SDS011;13298;48.792;9.154;2023-09-12T09:53:13;12.65;;;8.43;;
25341;SDS011;13298;48.792;9.154;2023-09-12T09:55:39;14.77;;;8.27;;
25341;SDS011;13298;48.792;9.154;2023-09-12T09:58:06;12.00;;;8.00;;
25341;SDS011;13298;48.792;9.154;2023-09-12T10:00:36;8.80;;;7.82;;
25341;SDS011;13298;48.792;9.154;2023-09-12T10:03:06;9.70;;;7.53;;
25341;SDS011;13298;48.792;9.154;2023-09-12T10:05:33;8.52;;;7.22;;
25341;SDS011;13298;48.792;9.154;2023-09-12T10:08:02;10.20;;;6.57;;
25341;SDS011;13298;48.792;9.154;2023-09-12T10:10:31;12.32;;;8.70;;
25341;SDS011;13298;48.792;9.154;2023-09-12T10:12:59;11.93;;;7.95;;
25341;SDS011;13298;48.792;9.154;2023-09-12T10:15:29;16.85;;;8.35;;
25341;SDS011;13298;48.792;9.154;2023-09-12T10:17:59;17.77;;;8.35;;
25341;SDS011;13298;48.792;9.154;2023-09-12T10:20:35;10.88;;;7.80;;
25341;SDS011;13298;48.792;9.154;2023-09-12T10:23:09;11.88;;;7.22;;
25341;SDS011;13298;48.792;9.154;2023-09-12T10:25:40;12.88;;;7.88;;
25341;SDS011;13298;48.792;9.154;2023-09-12T10:28:08;10.35;;;7.70;;
25341;SDS011;13298;48.792;9.154;2023-09-12T10:30:35;13.50;;;8.07;;
25341;SDS011;13298;48.792;9.154;2023-09-12T10:33:02;11.75;;;7.63;;
25341;SDS011;13298;48.792;9.154;2023-09-12T10:35:29;10.48;;;7.60;;
25341;SDS011;13298;48.792;9.154;2023-09-12T10:37:58;12.77;;;7.65;;
25341;SDS011;13298;48.792;9.154;2023-09-12T10:40:28;13.48;;;7.88;;
25341;SDS011;13298;48.792;9.154;2023-09-12T10:42:56;12.95;;;7.80;;
25341;SDS011;13298;48.792;9.154;2023-09-12T10:45:25;11.52;;;7.15;;
25341;SDS011;13298;48.792;9.154;2023-09-12T10:47:53;11.27;;;7.53;;
25341;SDS011;13298;48.792;9.154;2023-09-12T10:50:19;10.85;;;7.82;;
25341;SDS011;13298;48.792;9.154;2023-09-12T10:52:45;12.82;;;7.88;;
25341;SDS011;13298;48.792;9.154;2023-09-12T10:55:15;11.98;;;8.38;;
25341;SDS011;13298;48.792;9.154;2023-09-12T10:58:00;12.60;;;7.57;;
25341;SDS011;13298;48.792;9.154;2023-09-12T11:00:28;11.13;;;6.95;;
25341;SDS011;13298;48.792;9.154;2023-09-12T11:02:57;9.75;;;7.47;;
25341;SDS011;13298;48.792;9.154;2023-09-12T11:07:59;11.93;;;7.35;;
25341;SDS011;13298;48.792;9.154;2023-09-12T11:10:26;11.48;;;7.30;;
25341;SDS011;13298;48.792;9.154;2023-09-12T11:12:54;12.75;;;7.40;;
25341;SDS011;13298;48.792;9.154;2023-09-12T11:15:25;10.10;;;7.57;;
25341;SDS011;13298;48.792;9.154;2023-09-12T11:23:32;8.77;;;7.18;;
25341;SDS011;13298;48.792;9.154;2023-09-12T11:26:03;12.23;;;7.45;;
25341;SDS011;13298;48.792;9.154;2023-09-12T11:28:33;11.18;;;7.25;;
25341;SDS011;13298;48.792;9.154;2023-09-12T11:30:59;10.45;;;7.13;;
25341;SDS011;13298;48.792;9.154;2023-09-12T11:33:25;11.77;;;7.03;;
25341;SDS011;13298;48.792;9.154;2023-09-12T11:35:54;10.32;;;6.93;;
25341;SDS011;13298;48.792;9.154;2023-09-12T11:38:26;15.63;;;8.97;;
25341;SDS011;13298;48.792;9.154;2023-09-12T11:40:54;10.77;;;7.23;;
25341;SDS011;13298;48.792;9.154;2023-09-12T11:43:23;10.80;;;7.90;;
25341;SDS011;13298;48.792;9.154;2023-09-12T11:45:52;12.40;;;7.95;;
25341;SDS011;13298;48.792;9.154;2023-09-12T11:48:19;9.50;;;8.10;;
25341;SDS011;13298;48.792;9.154;2023-09-12T11:50:52;12.93;;;7.70;;
25341;SDS011;13298;48.792;9.154;2023-09-12T11:53:23;13.23;;;7.32;;
25341;SDS011;13298;48.792;9.154;2023-09-12T11:55:52;11.43;;;7.30;;
25341;SDS011;13298;48.792;9.154;2023-09-12T11:58:20;13.93;;;7.47;;
25341;SDS011;13298;48.792;9.154;2023-09-12T12:00:54;11.18;;;7.82;;
25341;SDS011;13298;48.792;9.154;2023-09-12T12:03:25;12.10;;;7.75;;
25341;SDS011;13298;48.792;9.154;2023-09-12T12:05:53;9.00;;;7.03;;
25341;SDS011;13298;48.792;9.154;2023-09-12T12:08:20;15.10;;;8.05;;
25341;SDS011;13298;48.792;9.154;2023-09-12T12:10:52;9.90;;;7.43;;
25341;SDS011;13298;48.792;9.154;2023-09-12T12:13:19;10.85;;;7.95;;
25341;SDS011;13298;48.792;9.154;2023-09-12T12:15:46;8.27;;;6.38;;
25341;SDS011;13298;48.792;9.154;2023-09-12T12:18:12;9.88;;;7.50;;
25341;SDS011;13298;48.792;9.154;2023-09-12T12:20:38;13.88;;;7.68;;
25341;SDS011;13298;48.792;9.154;2023-09-12T12:23:04;13.25;;;7.93;;
25341;SDS011;13298;48.792;9.154;2023-09-12T12:25:33;13.20;;;8.07;;
25341;SDS011;13298;48.792;9.154;2023-09-12T12:28:00;12.15;;;7.10;;
25341;SDS011;13298;48.792;9.154;2023-09-12T12:30:29;10.35;;;7.18;;
25341;SDS011;13298;48.792;9.154;2023-09-12T12:32:57;11.55;;;7.25;;
25341;SDS011;13298;48.792;9.154;2023-09-12T12:35:26;10.63;;;6.95;;
25341;SDS011;13298;48.792;9.154;2023-09-12T12:37:53;15.18;;;7.28;;
25341;SDS011;13298;48.792;9.154;2023-09-12T12:40:21;7.78;;;6.88;;
25341;SDS011;13298;48.792;9.154;2023-09-12T12:42:47;9.95;;;6.82;;
25341;SDS011;13298;48.792;9.154;2023-09-12T12:45:14;9.43;;;6.78;;
25341;SDS011;13298;48.792;9.154;2023-09-12T12:47:42;12.07;;;6.88;;
25341;SDS011;13298;48.792;9.154;2023-09-12T12:50:16;11.75;;;6.85;;
25341;SDS011;13298;48.792;9.154;2023-09-12T12:52:45;11.05;;;6.85;;
25341;SDS011;13298;48.792;9.154;2023-09-12T12:55:13;9.50;;;7.32;;
25341;SDS011;13298;48.792;9.154;2023-09-12T12:57:42;8.02;;;6.75;;
25341;SDS011;13298;48.792;9.154;2023-09-12T13:00:10;10.30;;;7.25;;
25341;SDS011;13298;48.792;9.154;2023-09-12T13:02:41;8.75;;;6.57;;
25341;SDS011;13298;48.792;9.154;2023-09-12T13:08:07;15.32;;;6.60;;
25341;SDS011;13298;48.792;9.154;2023-09-12T13:10:32;8.63;;;6.18;;
25341;SDS011;13298;48.792;9.154;2023-09-12T13:12:58;10.60;;;5.85;;
25341;SDS011;13298;48.792;9.154;2023-09-12T13:15:24;12.77;;;6.68;;
25341;SDS011;13298;48.792;9.154;2023-09-12T13:17:50;7.65;;;5.78;;
25341;SDS011;13298;48.792;9.154;2023-09-12T13:20:15;14.18;;;6.65;;
25341;SDS011;13298;48.792;9.154;2023-09-12T13:22:41;8.52;;;6.07;;
25341;SDS011;13298;48.792;9.154;2023-09-12T13:25:08;10.07;;;6.20;;
25341;SDS011;13298;48.792;9.154;2023-09-12T13:27:34;8.30;;;6.22;;
25341;SDS011;13298;48.792;9.154;2023-09-12T13:30:00;11.13;;;6.70;;
25341;SDS011;13298;48.792;9.154;2023-09-12T13:32:26;13.20;;;7.18;;
25341;SDS011;13298;48.792;9.154;2023-09-12T13:34:52;10.30;;;6.43;;
25341;SDS011;13298;48.792;9.154;2023-09-12T13:37:18;9.52;;;6.72;;
25341;SDS011;13298;48.792;9.154;2023-09-12T13:39:44;9.00;;;6.60;;
25341;SDS011;13298;48.792;9.154;2023-09-12T13:42:13;10.25;;;6.82;;
25341;SDS011;13298;48.792;9.154;2023-09-12T13:44:43;13.13;;;7.25;;
25341;SDS011;13298;48.792;9.154;2023-09-12T13:47:09;9.45;;;6.53;;
25341;SDS011;13298;48.792;9.154;2023-09-12T13:49:35;15.45;;;6.68;;
25341;SDS011;13298;48.792;9.154;2023-09-12T13:52:01;12.65;;;6.68;;
25341;SDS011;13298;48.792;9.154;2023-09-12T13:54:27;11.45;;;7.35;;
25341;SDS011;13298;48.792;9.154;2023-09-12T13:56:53;8.63;;;6.32;;
25341;SDS011;13298;48.792;9.154;2023-09-12T13:59:18;12.77;;;7.22;;
25341;SDS011;13298;48.792;9.154;2023-09-12T14:01:45;8.88;;;6.55;;
25341;SDS011;13298;48.792;9.154;2023-09-12T14:04:11;10.38;;;7.10;;
25341;SDS011;13298;48.792;9.154;2023-09-12T14:06:38;9.35;;;6.43;;
25341;SDS011;13298;48.792;9.154;2023-09-12T14:09:04;10.75;;;6.65;;
25341;SDS011;13298;48.792;9.154;2023-09-12T14:11:30;9.55;;;6.30;;
25341;SDS011;13298;48.792;9.154;2023-09-12T14:13:56;12.75;;;6.47;;
25341;SDS011;13298;48.792;9.154;2023-09-12T14:16:22;8.82;;;6.45;;
25341;SDS011;13298;48.792;9.154;2023-09-12T14:18:47;10.40;;;6.55;;
25341;SDS011;13298;48.792;9.154;2023-09-12T14:21:13;8.65;;;6.25;;
25341;SDS011;13298;48.792;9.154;2023-09-12T14:23:39;12.25;;;6.93;;
25341;SDS011;13298;48.792;9.154;2023-09-12T14:26:04;11.70;;;7.00;;
25341;SDS011;13298;48.792;9.154;2023-09-12T14:28:30;10.48;;;6.60;;
25341;SDS011;13298;48.792;9.154;2023-09-12T14:30:59;8.75;;;6.20;;
25341;SDS011;13298;48.792;9.154;2023-09-12T14:33:25;11.25;;;6.13;;
25341;SDS011;13298;48.792;9.154;2023-09-12T14:35:51;10.25;;;6.45;;
25341;SDS011;13298;48.792;9.154;2023-09-12T14:38:16;7.57;;;6.15;;
25341;SDS011;13298;48.792;9.154;2023-09-12T14:40:42;9.25;;;6.30;;
25341;SDS011;13298;48.792;9.154;2023-09-12T14:43:08;9.15;;;6.68;;
25341;SDS011;13298;48.792;9.154;2023-09-12T14:45:33;10.23;;;5.90;;
25341;SDS011;13298;48.792;9.154;2023-09-12T14:47:59;8.30;;;6.20;;
25341;SDS011;13298;48.792;9.154;2023-09-12T14:50:25;10.80;;;6.00;;
25341;SDS011;13298;48.792;9.154;2023-09-12T14:52:54;10.43;;;6.50;;